KATW/ATW METAR and TAF weather

Enter ICAO airport designator
Station Type Date Time Source
KATW METAR 2019/12/16 03:45 UTC NOAA

KATW 160345Z 29004KT 10SM SCT120 M12/M17 A3009


Station Type Date Time Source
KATW Decoded METAR 2019/12/16 03:45 UTC NOAA

Appleton / Outagamie, WI, United States (KATW) 44-15N 088-31W
Dec 15, 2019 - 10:45 PM EST / 2019.12.16 0345 UTC
Wind: from the WNW (290 degrees) at 5 MPH (4 KT):0
Visibility: 10 mile(s):0
Sky conditions: partly cloudy
Temperature: 10 F (-12 C)
Windchill: 1 F (-17 C):1
Dew Point: 1 F (-17 C)
Relative Humidity: 66%
Pressure (altimeter): 30.09 in. Hg (1018 hPa)
ob: KATW 160345Z 29004KT 10SM SCT120 M12/M17 A3009
cycle: 4

Station Type Date Time Source
KATW TAF 2019/12/15 18:42 UTC NOAA

TAF KATW 151741Z 1518/1618 26008KT P6SM SKC
FM160200 26003KT P6SM BKN090
FM161600 26007KT P6SM SCT100

Example: see airport list